Huvudsida
METAR-TAF:

METAR-TAF

Flygplatser :

Nancy, Frankrike

latitud: 48-41N, longitud: 006-13E, höjd: 225 m

Aktuellt väderrapport

Denna rapport gjordes för 56 minuter sedan, klockan 22:00 UTC
Vind 5 kt från syd, varierande mellan syd/sydost och sydväst
Temperatur 15°C
Fuktighet 88%
Tryck 1015 hPa
Sikt 10 km eller mer
Inga moln under 1 500 m eller inga cumulonimbus

METAR: LFSN 222200Z AUTO 19005KT 160V230 CAVOK 15/13 Q1015

Tid: 00:56 (22:56 UTC)


TAF: saknas

Aktuella väderrapporter och prognoser från 4000 flygplatser (METAR- och TAF-rapporter).

De tillgängliga stationerna syns som gula och röda prickar på kartan.

För musen över prickarna för att se namnen på stationerna.

Klicka sedan för att få väderrapporter och prognoser.

För att ändra kartan: Klicka på de gröna knapparna med ett svart kors på för att zooma in; den gröna knappen med ett streck på för att zooma ut; eller på de gröna pilarna för angränsande kartor.


METAR-TAF: